sensor_id;sensor_type;location;lat;lon;timestamp;temperature;humidity
12053;DHT22;6087;48.982;12.064;2023-07-02T00:02:26;17.50;99.90
12053;DHT22;6087;48.982;12.064;2023-07-02T00:04:53;17.60;99.90
12053;DHT22;6087;48.982;12.064;2023-07-02T00:07:19;17.60;99.90
12053;DHT22;6087;48.982;12.064;2023-07-02T00:09:46;17.50;99.90
12053;DHT22;6087;48.982;12.064;2023-07-02T00:12:19;17.40;99.90
12053;DHT22;6087;48.982;12.064;2023-07-02T00:14:46;17.50;99.90
12053;DHT22;6087;48.982;12.064;2023-07-02T00:17:14;17.40;99.90
12053;DHT22;6087;48.982;12.064;2023-07-02T00:19:44;17.50;99.90
12053;DHT22;6087;48.982;12.064;2023-07-02T00:22:18;17.50;99.90
12053;DHT22;6087;48.982;12.064;2023-07-02T00:24:44;17.50;99.90
12053;DHT22;6087;48.982;12.064;2023-07-02T00:27:11;17.40;99.90
12053;DHT22;6087;48.982;12.064;2023-07-02T00:29:41;17.40;99.90
12053;DHT22;6087;48.982;12.064;2023-07-02T00:32:21;17.40;99.90
12053;DHT22;6087;48.982;12.064;2023-07-02T00:34:48;17.40;99.90
12053;DHT22;6087;48.982;12.064;2023-07-02T00:37:15;17.40;99.90
12053;DHT22;6087;48.982;12.064;2023-07-02T00:39:42;17.40;99.90
12053;DHT22;6087;48.982;12.064;2023-07-02T00:42:09;17.40;99.90
12053;DHT22;6087;48.982;12.064;2023-07-02T00:44:37;17.40;99.90
12053;DHT22;6087;48.982;12.064;2023-07-02T00:47:06;17.30;99.90
12053;DHT22;6087;48.982;12.064;2023-07-02T00:49:34;17.30;99.90
12053;DHT22;6087;48.982;12.064;2023-07-02T00:52:05;17.30;99.90
12053;DHT22;6087;48.982;12.064;2023-07-02T00:54:35;17.30;99.90
12053;DHT22;6087;48.982;12.064;2023-07-02T00:57:03;17.30;99.90
12053;DHT22;6087;48.982;12.064;2023-07-02T00:59:32;17.30;99.90
12053;DHT22;6087;48.982;12.064;2023-07-02T01:02:01;17.40;99.90
12053;DHT22;6087;48.982;12.064;2023-07-02T01:04:28;17.40;99.90
12053;DHT22;6087;48.982;12.064;2023-07-02T01:06:56;17.40;99.90
12053;DHT22;6087;48.982;12.064;2023-07-02T01:09:24;17.40;99.90
12053;DHT22;6087;48.982;12.064;2023-07-02T01:11:54;17.40;99.90
12053;DHT22;6087;48.982;12.064;2023-07-02T01:14:25;17.40;99.90
12053;DHT22;6087;48.982;12.064;2023-07-02T01:16:54;17.40;99.90
12053;DHT22;6087;48.982;12.064;2023-07-02T01:19:28;17.30;99.90
12053;DHT22;6087;48.982;12.064;2023-07-02T01:21:59;17.20;99.90
12053;DHT22;6087;48.982;12.064;2023-07-02T01:24:27;17.20;99.90
12053;DHT22;6087;48.982;12.064;2023-07-02T01:26:54;17.20;99.90
12053;DHT22;6087;48.982;12.064;2023-07-02T01:29:21;17.10;99.90
12053;DHT22;6087;48.982;12.064;2023-07-02T01:31:48;17.10;99.90
12053;DHT22;6087;48.982;12.064;2023-07-02T01:34:15;17.00;99.90
12053;DHT22;6087;48.982;12.064;2023-07-02T01:36:43;17.00;99.90
12053;DHT22;6087;48.982;12.064;2023-07-02T01:39:10;17.00;99.90
12053;DHT22;6087;48.982;12.064;2023-07-02T01:41:41;17.00;99.90
12053;DHT22;6087;48.982;12.064;2023-07-02T01:44:09;17.00;99.90
12053;DHT22;6087;48.982;12.064;2023-07-02T01:46:35;17.00;99.90
12053;DHT22;6087;48.982;12.064;2023-07-02T01:49:02;17.00;99.90
12053;DHT22;6087;48.982;12.064;2023-07-02T01:51:29;17.00;99.90
12053;DHT22;6087;48.982;12.064;2023-07-02T01:53:57;17.00;99.90
12053;DHT22;6087;48.982;12.064;2023-07-02T01:56:24;17.00;99.90
12053;DHT22;6087;48.982;12.064;2023-07-02T01:58:51;17.10;99.90
12053;DHT22;6087;48.982;12.064;2023-07-02T02:01:18;17.00;99.90
12053;DHT22;6087;48.982;12.064;2023-07-02T02:03:45;17.00;99.90
12053;DHT22;6087;48.982;12.064;2023-07-02T02:06:12;17.00;99.90
12053;DHT22;6087;48.982;12.064;2023-07-02T02:08:39;17.00;99.90
12053;DHT22;6087;48.982;12.064;2023-07-02T02:11:10;17.10;99.90
12053;DHT22;6087;48.982;12.064;2023-07-02T02:13:36;17.10;99.90
12053;DHT22;6087;48.982;12.064;2023-07-02T02:16:03;17.10;99.90
12053;DHT22;6087;48.982;12.064;2023-07-02T02:18:30;17.00;99.90
12053;DHT22;6087;48.982;12.064;2023-07-02T02:20:57;17.00;99.90
12053;DHT22;6087;48.982;12.064;2023-07-02T02:23:26;16.90;99.90
12053;DHT22;6087;48.982;12.064;2023-07-02T02:25:55;17.00;99.90
12053;DHT22;6087;48.982;12.064;2023-07-02T02:28:24;16.90;99.90
12053;DHT22;6087;48.982;12.064;2023-07-02T02:30:51;16.80;99.90
12053;DHT22;6087;48.982;12.064;2023-07-02T02:33:23;16.70;99.90
12053;DHT22;6087;48.982;12.064;2023-07-02T02:35:56;16.70;99.90
12053;DHT22;6087;48.982;12.064;2023-07-02T02:38:23;16.70;99.90
12053;DHT22;6087;48.982;12.064;2023-07-02T02:40:50;16.70;99.90
12053;DHT22;6087;48.982;12.064;2023-07-02T02:43:17;16.70;99.90
12053;DHT22;6087;48.982;12.064;2023-07-02T02:45:45;16.70;99.90
12053;DHT22;6087;48.982;12.064;2023-07-02T02:48:12;16.70;99.90
12053;DHT22;6087;48.982;12.064;2023-07-02T02:50:39;16.70;99.90
12053;DHT22;6087;48.982;12.064;2023-07-02T02:53:11;16.80;99.90
12053;DHT22;6087;48.982;12.064;2023-07-02T02:55:38;16.80;99.90
12053;DHT22;6087;48.982;12.064;2023-07-02T02:58:04;16.80;99.90
12053;DHT22;6087;48.982;12.064;2023-07-02T03:00:31;16.80;99.10
12053;DHT22;6087;48.982;12.064;2023-07-02T03:03:00;16.90;97.50
12053;DHT22;6087;48.982;12.064;2023-07-02T03:05:27;16.80;98.00
12053;DHT22;6087;48.982;12.064;2023-07-02T03:07:54;16.80;95.90
12053;DHT22;6087;48.982;12.064;2023-07-02T03:10:21;16.90;96.60
12053;DHT22;6087;48.982;12.064;2023-07-02T03:12:47;16.90;93.60
12053;DHT22;6087;48.982;12.064;2023-07-02T03:15:14;16.90;92.20
12053;DHT22;6087;48.982;12.064;2023-07-02T03:17:43;16.80;91.70
12053;DHT22;6087;48.982;12.064;2023-07-02T03:20:20;16.80;91.90
12053;DHT22;6087;48.982;12.064;2023-07-02T03:22:47;16.80;90.80
12053;DHT22;6087;48.982;12.064;2023-07-02T03:25:14;16.80;91.40
12053;DHT22;6087;48.982;12.064;2023-07-02T03:27:44;16.80;91.20
12053;DHT22;6087;48.982;12.064;2023-07-02T03:30:14;16.80;91.80
12053;DHT22;6087;48.982;12.064;2023-07-02T03:32:43;16.80;92.50
12053;DHT22;6087;48.982;12.064;2023-07-02T03:35:10;16.80;92.90
12053;DHT22;6087;48.982;12.064;2023-07-02T03:37:38;16.80;93.80
12053;DHT22;6087;48.982;12.064;2023-07-02T03:40:08;16.80;95.50
12053;DHT22;6087;48.982;12.064;2023-07-02T03:42:35;16.80;96.50
12053;DHT22;6087;48.982;12.064;2023-07-02T03:45:02;16.80;98.80
12053;DHT22;6087;48.982;12.064;2023-07-02T03:47:30;16.80;99.10
12053;DHT22;6087;48.982;12.064;2023-07-02T03:49:56;16.80;99.90
12053;DHT22;6087;48.982;12.064;2023-07-02T03:52:23;16.80;99.90
12053;DHT22;6087;48.982;12.064;2023-07-02T03:54:52;16.70;99.90
12053;DHT22;6087;48.982;12.064;2023-07-02T03:57:19;16.70;99.90
12053;DHT22;6087;48.982;12.064;2023-07-02T03:59:48;16.70;99.90
12053;DHT22;6087;48.982;12.064;2023-07-02T04:02:17;16.70;99.90
12053;DHT22;6087;48.982;12.064;2023-07-02T04:04:52;16.60;99.90
12053;DHT22;6087;48.982;12.064;2023-07-02T04:07:18;16.60;99.90
12053;DHT22;6087;48.982;12.064;2023-07-02T04:09:45;16.60;99.90
12053;DHT22;6087;48.982;12.064;2023-07-02T04:12:13;16.60;99.90
12053;DHT22;6087;48.982;12.064;2023-07-02T04:14:40;16.60;99.90
12053;DHT22;6087;48.982;12.064;2023-07-02T04:17:07;16.60;99.90
12053;DHT22;6087;48.982;12.064;2023-07-02T04:19:34;16.60;99.90
12053;DHT22;6087;48.982;12.064;2023-07-02T04:22:01;16.60;99.90
12053;DHT22;6087;48.982;12.064;2023-07-02T04:24:28;16.50;99.90
12053;DHT22;6087;48.982;12.064;2023-07-02T04:26:55;16.60;99.90
12053;DHT22;6087;48.982;12.064;2023-07-02T04:29:23;16.50;99.90
12053;DHT22;6087;48.982;12.064;2023-07-02T04:31:50;16.50;99.90
12053;DHT22;6087;48.982;12.064;2023-07-02T04:34:17;16.60;99.90
12053;DHT22;6087;48.982;12.064;2023-07-02T04:36:47;16.60;99.90
12053;DHT22;6087;48.982;12.064;2023-07-02T04:39:14;16.60;99.90
12053;DHT22;6087;48.982;12.064;2023-07-02T04:41:41;16.60;99.90
12053;DHT22;6087;48.982;12.064;2023-07-02T04:44:08;16.60;99.90
12053;DHT22;6087;48.982;12.064;2023-07-02T04:46:37;16.60;99.90
12053;DHT22;6087;48.982;12.064;2023-07-02T04:49:04;16.70;99.90
12053;DHT22;6087;48.982;12.064;2023-07-02T04:51:30;16.80;99.90
12053;DHT22;6087;48.982;12.064;2023-07-02T04:53:57;16.80;99.90
12053;DHT22;6087;48.982;12.064;2023-07-02T04:56:24;16.80;99.90
12053;DHT22;6087;48.982;12.064;2023-07-02T04:58:52;16.70;99.90
12053;DHT22;6087;48.982;12.064;2023-07-02T05:01:19;16.80;99.90
12053;DHT22;6087;48.982;12.064;2023-07-02T05:03:47;16.70;99.90
12053;DHT22;6087;48.982;12.064;2023-07-02T05:06:14;16.80;99.90
12053;DHT22;6087;48.982;12.064;2023-07-02T05:08:41;16.80;99.90
12053;DHT22;6087;48.982;12.064;2023-07-02T05:11:08;16.80;99.90
12053;DHT22;6087;48.982;12.064;2023-07-02T05:13:34;16.80;99.90
12053;DHT22;6087;48.982;12.064;2023-07-02T05:16:01;16.80;98.00
12053;DHT22;6087;48.982;12.064;2023-07-02T05:18:28;16.90;99.90
12053;DHT22;6087;48.982;12.064;2023-07-02T05:20:56;16.90;99.90
12053;DHT22;6087;48.982;12.064;2023-07-02T05:23:29;17.00;99.90
12053;DHT22;6087;48.982;12.064;2023-07-02T05:25:56;17.00;99.90
12053;DHT22;6087;48.982;12.064;2023-07-02T05:28:24;16.90;99.90
12053;DHT22;6087;48.982;12.064;2023-07-02T05:30:50;16.90;99.90
12053;DHT22;6087;48.982;12.064;2023-07-02T05:33:20;17.00;99.90
12053;DHT22;6087;48.982;12.064;2023-07-02T05:35:47;16.90;99.90
12053;DHT22;6087;48.982;12.064;2023-07-02T05:38:17;16.90;99.90
12053;DHT22;6087;48.982;12.064;2023-07-02T05:40:44;16.90;99.90
12053;DHT22;6087;48.982;12.064;2023-07-02T05:43:11;16.90;99.90
12053;DHT22;6087;48.982;12.064;2023-07-02T05:45:38;16.90;98.80
12053;DHT22;6087;48.982;12.064;2023-07-02T05:48:05;17.00;97.30
12053;DHT22;6087;48.982;12.064;2023-07-02T05:50:32;17.10;99.90
12053;DHT22;6087;48.982;12.064;2023-07-02T05:52:59;17.20;94.00
12053;DHT22;6087;48.982;12.064;2023-07-02T05:55:27;17.20;95.10
12053;DHT22;6087;48.982;12.064;2023-07-02T05:57:54;17.20;93.60
12053;DHT22;6087;48.982;12.064;2023-07-02T06:00:23;17.20;94.00
12053;DHT22;6087;48.982;12.064;2023-07-02T06:02:50;17.20;92.00
12053;DHT22;6087;48.982;12.064;2023-07-02T06:05:16;17.20;88.40
12053;DHT22;6087;48.982;12.064;2023-07-02T06:07:43;17.20;85.10
12053;DHT22;6087;48.982;12.064;2023-07-02T06:10:10;17.20;79.10
12053;DHT22;6087;48.982;12.064;2023-07-02T06:12:38;17.30;82.80
12053;DHT22;6087;48.982;12.064;2023-07-02T06:15:06;17.30;78.50
12053;DHT22;6087;48.982;12.064;2023-07-02T06:17:33;17.20;70.60
12053;DHT22;6087;48.982;12.064;2023-07-02T06:20:01;17.20;71.20
12053;DHT22;6087;48.982;12.064;2023-07-02T06:22:30;17.30;72.10
12053;DHT22;6087;48.982;12.064;2023-07-02T06:25:00;17.30;68.80
12053;DHT22;6087;48.982;12.064;2023-07-02T06:27:29;17.20;63.30
12053;DHT22;6087;48.982;12.064;2023-07-02T06:29:57;17.20;63.20
12053;DHT22;6087;48.982;12.064;2023-07-02T06:32:24;17.20;63.70
12053;DHT22;6087;48.982;12.064;2023-07-02T06:34:51;17.20;64.80
12053;DHT22;6087;48.982;12.064;2023-07-02T06:37:17;17.20;64.30
12053;DHT22;6087;48.982;12.064;2023-07-02T06:39:44;17.10;62.70
12053;DHT22;6087;48.982;12.064;2023-07-02T06:42:11;17.10;64.80
12053;DHT22;6087;48.982;12.064;2023-07-02T06:44:41;17.10;64.70
12053;DHT22;6087;48.982;12.064;2023-07-02T06:47:09;17.10;64.90
12053;DHT22;6087;48.982;12.064;2023-07-02T06:49:36;17.00;66.00
12053;DHT22;6087;48.982;12.064;2023-07-02T06:52:04;17.00;67.50
12053;DHT22;6087;48.982;12.064;2023-07-02T06:54:30;17.00;69.60
12053;DHT22;6087;48.982;12.064;2023-07-02T06:56:57;16.90;70.40
12053;DHT22;6087;48.982;12.064;2023-07-02T06:59:24;16.90;72.20
12053;DHT22;6087;48.982;12.064;2023-07-02T07:01:52;16.90;72.20
12053;DHT22;6087;48.982;12.064;2023-07-02T07:04:20;16.80;73.20
12053;DHT22;6087;48.982;12.064;2023-07-02T07:06:47;16.80;72.30
12053;DHT22;6087;48.982;12.064;2023-07-02T07:09:14;16.70;70.00
12053;DHT22;6087;48.982;12.064;2023-07-02T07:11:41;16.80;72.10
12053;DHT22;6087;48.982;12.064;2023-07-02T07:14:08;16.80;72.00
12053;DHT22;6087;48.982;12.064;2023-07-02T07:16:35;16.80;70.30
12053;DHT22;6087;48.982;12.064;2023-07-02T07:19:01;16.80;66.50
12053;DHT22;6087;48.982;12.064;2023-07-02T07:21:30;16.80;67.20
12053;DHT22;6087;48.982;12.064;2023-07-02T07:23:57;16.80;63.30
12053;DHT22;6087;48.982;12.064;2023-07-02T07:26:24;16.90;65.50
12053;DHT22;6087;48.982;12.064;2023-07-02T07:28:51;16.90;61.60
12053;DHT22;6087;48.982;12.064;2023-07-02T07:31:20;16.90;62.30
12053;DHT22;6087;48.982;12.064;2023-07-02T07:33:46;17.00;61.70
12053;DHT22;6087;48.982;12.064;2023-07-02T07:36:13;17.00;62.80
12053;DHT22;6087;48.982;12.064;2023-07-02T07:38:43;17.00;61.20
12053;DHT22;6087;48.982;12.064;2023-07-02T07:41:10;17.00;60.50
12053;DHT22;6087;48.982;12.064;2023-07-02T07:43:37;17.00;58.60
12053;DHT22;6087;48.982;12.064;2023-07-02T07:46:03;17.00;60.10
12053;DHT22;6087;48.982;12.064;2023-07-02T07:48:30;17.00;55.10
12053;DHT22;6087;48.982;12.064;2023-07-02T07:50:57;17.10;57.20
12053;DHT22;6087;48.982;12.064;2023-07-02T07:53:24;17.20;53.30
12053;DHT22;6087;48.982;12.064;2023-07-02T07:55:53;17.20;53.30
12053;DHT22;6087;48.982;12.064;2023-07-02T07:58:20;17.20;50.90
12053;DHT22;6087;48.982;12.064;2023-07-02T08:00:47;17.20;49.60
12053;DHT22;6087;48.982;12.064;2023-07-02T08:03:13;17.30;50.10
12053;DHT22;6087;48.982;12.064;2023-07-02T08:05:40;17.40;46.40
12053;DHT22;6087;48.982;12.064;2023-07-02T08:08:07;17.40;44.60
12053;DHT22;6087;48.982;12.064;2023-07-02T08:10:34;17.40;44.60
12053;DHT22;6087;48.982;12.064;2023-07-02T08:13:05;17.50;43.80
12053;DHT22;6087;48.982;12.064;2023-07-02T08:15:32;17.60;44.80
12053;DHT22;6087;48.982;12.064;2023-07-02T08:17:59;17.60;42.20
12053;DHT22;6087;48.982;12.064;2023-07-02T08:20:26;17.60;40.10
12053;DHT22;6087;48.982;12.064;2023-07-02T08:22:53;17.60;40.10
12053;DHT22;6087;48.982;12.064;2023-07-02T08:25:20;17.70;41.20
12053;DHT22;6087;48.982;12.064;2023-07-02T08:27:47;17.60;39.20
12053;DHT22;6087;48.982;12.064;2023-07-02T08:30:16;17.60;39.50
12053;DHT22;6087;48.982;12.064;2023-07-02T08:32:43;17.70;39.10
12053;DHT22;6087;48.982;12.064;2023-07-02T08:35:10;17.80;39.20
12053;DHT22;6087;48.982;12.064;2023-07-02T08:37:37;17.70;39.80
12053;DHT22;6087;48.982;12.064;2023-07-02T08:40:05;17.70;38.40
12053;DHT22;6087;48.982;12.064;2023-07-02T08:42:33;17.70;38.60
12053;DHT22;6087;48.982;12.064;2023-07-02T08:45:00;17.70;37.90
12053;DHT22;6087;48.982;12.064;2023-07-02T08:47:29;17.80;38.70
12053;DHT22;6087;48.982;12.064;2023-07-02T08:49:56;17.80;38.00
12053;DHT22;6087;48.982;12.064;2023-07-02T08:52:23;17.90;37.40
12053;DHT22;6087;48.982;12.064;2023-07-02T08:54:50;18.10;37.10
12053;DHT22;6087;48.982;12.064;2023-07-02T08:57:17;18.20;37.70
12053;DHT22;6087;48.982;12.064;2023-07-02T08:59:44;18.30;38.20
12053;DHT22;6087;48.982;12.064;2023-07-02T09:02:12;18.40;36.50
12053;DHT22;6087;48.982;12.064;2023-07-02T09:04:40;18.40;34.10
12053;DHT22;6087;48.982;12.064;2023-07-02T09:07:08;18.40;33.20
12053;DHT22;6087;48.982;12.064;2023-07-02T09:09:44;18.40;31.50
12053;DHT22;6087;48.982;12.064;2023-07-02T09:12:22;18.40;30.70
12053;DHT22;6087;48.982;12.064;2023-07-02T09:14:54;18.40;30.80
12053;DHT22;6087;48.982;12.064;2023-07-02T09:17:21;18.40;30.00
12053;DHT22;6087;48.982;12.064;2023-07-02T09:19:51;18.40;29.80
12053;DHT22;6087;48.982;12.064;2023-07-02T09:22:18;18.40;30.60
12053;DHT22;6087;48.982;12.064;2023-07-02T09:24:54;18.40;28.80
12053;DHT22;6087;48.982;12.064;2023-07-02T09:27:35;18.50;29.00
12053;DHT22;6087;48.982;12.064;2023-07-02T09:30:08;18.40;27.70
12053;DHT22;6087;48.982;12.064;2023-07-02T09:32:35;18.50;27.20
12053;DHT22;6087;48.982;12.064;2023-07-02T09:35:05;18.60;26.10
12053;DHT22;6087;48.982;12.064;2023-07-02T09:37:32;18.80;25.30
12053;DHT22;6087;48.982;12.064;2023-07-02T09:39:59;19.00;23.90
12053;DHT22;6087;48.982;12.064;2023-07-02T09:42:28;19.00;23.40
12053;DHT22;6087;48.982;12.064;2023-07-02T09:44:55;19.10;22.60
12053;DHT22;6087;48.982;12.064;2023-07-02T09:47:25;19.10;19.90
12053;DHT22;6087;48.982;12.064;2023-07-02T09:49:54;19.10;19.30
12053;DHT22;6087;48.982;12.064;2023-07-02T09:52:23;19.20;18.00
12053;DHT22;6087;48.982;12.064;2023-07-02T09:54:50;19.30;19.10
12053;DHT22;6087;48.982;12.064;2023-07-02T09:57:17;19.40;19.60
12053;DHT22;6087;48.982;12.064;2023-07-02T09:59:44;19.50;17.90
12053;DHT22;6087;48.982;12.064;2023-07-02T10:02:12;19.60;16.20
12053;DHT22;6087;48.982;12.064;2023-07-02T10:04:40;19.70;15.40
12053;DHT22;6087;48.982;12.064;2023-07-02T10:07:07;19.70;14.70
12053;DHT22;6087;48.982;12.064;2023-07-02T10:09:36;19.70;15.70
12053;DHT22;6087;48.982;12.064;2023-07-02T10:12:15;19.80;16.60
12053;DHT22;6087;48.982;12.064;2023-07-02T10:14:43;19.90;15.40
12053;DHT22;6087;48.982;12.064;2023-07-02T10:17:10;19.90;15.90
12053;DHT22;6087;48.982;12.064;2023-07-02T10:19:37;19.90;14.20
12053;DHT22;6087;48.982;12.064;2023-07-02T10:22:16;19.80;13.70
12053;DHT22;6087;48.982;12.064;2023-07-02T10:24:54;19.80;13.60
12053;DHT22;6087;48.982;12.064;2023-07-02T10:27:33;19.90;10.70
12053;DHT22;6087;48.982;12.064;2023-07-02T10:30:01;20.10;9.00
12053;DHT22;6087;48.982;12.064;2023-07-02T10:32:29;20.10;8.20
12053;DHT22;6087;48.982;12.064;2023-07-02T10:34:56;20.20;9.50
12053;DHT22;6087;48.982;12.064;2023-07-02T10:37:24;20.30;11.40
12053;DHT22;6087;48.982;12.064;2023-07-02T10:39:53;20.30;10.90
12053;DHT22;6087;48.982;12.064;2023-07-02T10:42:20;20.30;9.50
12053;DHT22;6087;48.982;12.064;2023-07-02T10:44:51;20.30;8.80
12053;DHT22;6087;48.982;12.064;2023-07-02T10:47:18;20.40;6.80
12053;DHT22;6087;48.982;12.064;2023-07-02T10:49:45;20.60;7.90
12053;DHT22;6087;48.982;12.064;2023-07-02T10:52:12;20.70;7.00
12053;DHT22;6087;48.982;12.064;2023-07-02T10:54:40;20.60;4.50
12053;DHT22;6087;48.982;12.064;2023-07-02T10:57:09;20.60;4.50
12053;DHT22;6087;48.982;12.064;2023-07-02T10:59:39;20.60;4.80
12053;DHT22;6087;48.982;12.064;2023-07-02T11:02:07;20.50;2.60
12053;DHT22;6087;48.982;12.064;2023-07-02T11:04:36;20.50;2.90
12053;DHT22;6087;48.982;12.064;2023-07-02T11:07:03;20.50;1.00
12053;DHT22;6087;48.982;12.064;2023-07-02T11:09:30;20.40;1.00
12053;DHT22;6087;48.982;12.064;2023-07-02T11:12:06;20.30;1.00
12053;DHT22;6087;48.982;12.064;2023-07-02T11:14:35;20.40;1.00
12053;DHT22;6087;48.982;12.064;2023-07-02T11:17:04;20.60;1.00
12053;DHT22;6087;48.982;12.064;2023-07-02T11:19:32;20.70;1.00
12053;DHT22;6087;48.982;12.064;2023-07-02T11:21:59;20.70;1.00
12053;DHT22;6087;48.982;12.064;2023-07-02T11:24:27;20.80;1.00
12053;DHT22;6087;48.982;12.064;2023-07-02T11:26:55;20.90;1.00
12053;DHT22;6087;48.982;12.064;2023-07-02T11:29:22;21.00;1.00
12053;DHT22;6087;48.982;12.064;2023-07-02T11:31:50;21.00;1.00
12053;DHT22;6087;48.982;12.064;2023-07-02T11:34:19;20.80;1.00
12053;DHT22;6087;48.982;12.064;2023-07-02T11:36:50;20.80;1.00
12053;DHT22;6087;48.982;12.064;2023-07-02T11:39:19;20.90;1.00
12053;DHT22;6087;48.982;12.064;2023-07-02T11:41:47;21.00;1.00
12053;DHT22;6087;48.982;12.064;2023-07-02T11:44:16;21.10;1.00
12053;DHT22;6087;48.982;12.064;2023-07-02T11:46:43;21.20;1.00
12053;DHT22;6087;48.982;12.064;2023-07-02T11:49:11;21.30;1.00
12053;DHT22;6087;48.982;12.064;2023-07-02T11:51:39;21.50;1.00
12053;DHT22;6087;48.982;12.064;2023-07-02T11:54:09;21.50;1.00
12053;DHT22;6087;48.982;12.064;2023-07-02T11:56:36;21.60;1.00
12053;DHT22;6087;48.982;12.064;2023-07-02T11:59:03;21.50;1.00
12053;DHT22;6087;48.982;12.064;2023-07-02T12:01:31;21.60;1.00
12053;DHT22;6087;48.982;12.064;2023-07-02T12:03:58;21.80;1.00
12053;DHT22;6087;48.982;12.064;2023-07-02T12:06:26;21.80;1.00
12053;DHT22;6087;48.982;12.064;2023-07-02T12:08:53;21.80;1.00
12053;DHT22;6087;48.982;12.064;2023-07-02T12:11:20;21.80;1.00
12053;DHT22;6087;48.982;12.064;2023-07-02T12:13:47;21.80;1.00
12053;DHT22;6087;48.982;12.064;2023-07-02T12:16:14;21.90;1.00
12053;DHT22;6087;48.982;12.064;2023-07-02T12:18:41;21.80;1.00
12053;DHT22;6087;48.982;12.064;2023-07-02T12:21:07;21.80;1.00
12053;DHT22;6087;48.982;12.064;2023-07-02T12:23:36;21.80;1.00
12053;DHT22;6087;48.982;12.064;2023-07-02T12:26:03;21.70;1.00
12053;DHT22;6087;48.982;12.064;2023-07-02T12:28:30;21.60;1.00
12053;DHT22;6087;48.982;12.064;2023-07-02T12:30:57;21.70;1.00
12053;DHT22;6087;48.982;12.064;2023-07-02T12:33:24;21.70;1.00
12053;DHT22;6087;48.982;12.064;2023-07-02T12:35:51;21.80;1.00
12053;DHT22;6087;48.982;12.064;2023-07-02T12:38:18;22.00;1.00
12053;DHT22;6087;48.982;12.064;2023-07-02T12:40:46;22.20;1.00
12053;DHT22;6087;48.982;12.064;2023-07-02T12:43:14;22.30;1.00
12053;DHT22;6087;48.982;12.064;2023-07-02T12:45:41;22.20;1.00
12053;DHT22;6087;48.982;12.064;2023-07-02T12:48:08;22.00;1.00
12053;DHT22;6087;48.982;12.064;2023-07-02T12:50:37;22.10;1.00
12053;DHT22;6087;48.982;12.064;2023-07-02T12:53:04;22.00;1.00
12053;DHT22;6087;48.982;12.064;2023-07-02T12:55:31;22.10;1.00
12053;DHT22;6087;48.982;12.064;2023-07-02T12:57:59;22.30;1.00
12053;DHT22;6087;48.982;12.064;2023-07-02T13:00:26;22.30;1.00
12053;DHT22;6087;48.982;12.064;2023-07-02T13:02:53;22.20;1.00
12053;DHT22;6087;48.982;12.064;2023-07-02T13:05:23;22.20;1.00
12053;DHT22;6087;48.982;12.064;2023-07-02T13:07:52;22.20;1.00
12053;DHT22;6087;48.982;12.064;2023-07-02T13:10:19;22.30;1.00
12053;DHT22;6087;48.982;12.064;2023-07-02T13:12:46;22.30;1.00
12053;DHT22;6087;48.982;12.064;2023-07-02T13:15:14;22.50;1.00
12053;DHT22;6087;48.982;12.064;2023-07-02T13:17:41;22.60;1.00
12053;DHT22;6087;48.982;12.064;2023-07-02T13:20:09;22.70;1.00
12053;DHT22;6087;48.982;12.064;2023-07-02T13:22:36;22.80;1.00
12053;DHT22;6087;48.982;12.064;2023-07-02T13:25:04;22.90;1.00
12053;DHT22;6087;48.982;12.064;2023-07-02T13:27:31;23.00;1.00
12053;DHT22;6087;48.982;12.064;2023-07-02T13:29:58;23.10;1.00
12053;DHT22;6087;48.982;12.064;2023-07-02T13:32:28;23.10;1.00
12053;DHT22;6087;48.982;12.064;2023-07-02T13:34:54;23.20;1.00
12053;DHT22;6087;48.982;12.064;2023-07-02T13:37:21;23.30;1.00
12053;DHT22;6087;48.982;12.064;2023-07-02T13:39:49;23.20;1.00
12053;DHT22;6087;48.982;12.064;2023-07-02T13:42:16;23.30;1.00
12053;DHT22;6087;48.982;12.064;2023-07-02T13:44:43;23.40;1.00
12053;DHT22;6087;48.982;12.064;2023-07-02T13:47:10;23.30;1.00
12053;DHT22;6087;48.982;12.064;2023-07-02T13:49:41;23.30;1.00
12053;DHT22;6087;48.982;12.064;2023-07-02T13:52:09;23.30;1.00
12053;DHT22;6087;48.982;12.064;2023-07-02T13:54:36;23.50;1.00
12053;DHT22;6087;48.982;12.064;2023-07-02T13:57:03;23.60;1.00
12053;DHT22;6087;48.982;12.064;2023-07-02T13:59:32;23.40;1.00
12053;DHT22;6087;48.982;12.064;2023-07-02T14:01:59;23.20;1.00
12053;DHT22;6087;48.982;12.064;2023-07-02T14:04:26;23.10;1.00
12053;DHT22;6087;48.982;12.064;2023-07-02T14:06:58;23.20;1.00
12053;DHT22;6087;48.982;12.064;2023-07-02T14:09:25;23.40;1.00
12053;DHT22;6087;48.982;12.064;2023-07-02T14:11:52;23.40;1.00
12053;DHT22;6087;48.982;12.064;2023-07-02T14:14:22;23.40;1.00
12053;DHT22;6087;48.982;12.064;2023-07-02T14:16:50;23.20;1.00
12053;DHT22;6087;48.982;12.064;2023-07-02T14:19:17;23.40;1.00
12053;DHT22;6087;48.982;12.064;2023-07-02T14:21:50;23.40;1.00
12053;DHT22;6087;48.982;12.064;2023-07-02T14:24:17;23.40;1.00
12053;DHT22;6087;48.982;12.064;2023-07-02T14:26:44;23.40;1.00
12053;DHT22;6087;48.982;12.064;2023-07-02T14:29:11;23.40;1.00
12053;DHT22;6087;48.982;12.064;2023-07-02T14:31:38;23.50;1.00
12053;DHT22;6087;48.982;12.064;2023-07-02T14:34:06;23.50;1.00
12053;DHT22;6087;48.982;12.064;2023-07-02T14:36:33;23.60;1.00
12053;DHT22;6087;48.982;12.064;2023-07-02T14:39:00;23.80;1.00
12053;DHT22;6087;48.982;12.064;2023-07-02T14:41:27;23.90;1.00
12053;DHT22;6087;48.982;12.064;2023-07-02T14:43:56;23.90;1.00
12053;DHT22;6087;48.982;12.064;2023-07-02T14:46:23;23.90;1.00
12053;DHT22;6087;48.982;12.064;2023-07-02T14:48:50;23.90;1.00
12053;DHT22;6087;48.982;12.064;2023-07-02T14:51:18;23.90;1.00
12053;DHT22;6087;48.982;12.064;2023-07-02T14:53:45;23.70;1.00
12053;DHT22;6087;48.982;12.064;2023-07-02T14:56:12;23.80;1.00
12053;DHT22;6087;48.982;12.064;2023-07-02T14:58:39;23.80;1.00
12053;DHT22;6087;48.982;12.064;2023-07-02T15:01:06;23.70;1.00
12053;DHT22;6087;48.982;12.064;2023-07-02T15:03:33;23.80;1.00
12053;DHT22;6087;48.982;12.064;2023-07-02T15:06:07;23.80;1.00
12053;DHT22;6087;48.982;12.064;2023-07-02T15:08:36;23.90;1.00
12053;DHT22;6087;48.982;12.064;2023-07-02T15:11:03;23.80;1.00
12053;DHT22;6087;48.982;12.064;2023-07-02T15:13:30;23.80;1.00
12053;DHT22;6087;48.982;12.064;2023-07-02T15:15:57;23.90;1.00
12053;DHT22;6087;48.982;12.064;2023-07-02T15:18:25;23.90;1.00
12053;DHT22;6087;48.982;12.064;2023-07-02T15:20:53;23.80;1.00
12053;DHT22;6087;48.982;12.064;2023-07-02T15:23:20;23.80;1.00
12053;DHT22;6087;48.982;12.064;2023-07-02T15:25:57;23.90;1.00
12053;DHT22;6087;48.982;12.064;2023-07-02T15:28:24;23.90;1.00
12053;DHT22;6087;48.982;12.064;2023-07-02T15:30:52;24.00;1.00
12053;DHT22;6087;48.982;12.064;2023-07-02T15:33:23;23.90;1.00
12053;DHT22;6087;48.982;12.064;2023-07-02T15:35:50;23.90;1.00
12053;DHT22;6087;48.982;12.064;2023-07-02T15:38:17;23.80;1.00
12053;DHT22;6087;48.982;12.064;2023-07-02T15:40:46;23.90;1.00